x

Dunkirk, Ny (dbln6) Weather Station

2:00pm - Mon 26th Jan 2015 All times are CST. -6 hours from GMT.

  • Wind
    24mph, 26mph gusts
  • Air Temp 19°f
  • Sea Pressure 1010.4mb
  • Dunkirk, Ny
  • Dunkirk, Ny

More Historic Weather Station data

Upgrade to MSW Pro to gain access to the past 30 days of data for over 8000 Wavebouys and Weather Stations around the globe.

Join Pro

Comparision Forecast

View Surf forecast
   
Mon 01/26 2:00pm 24 26 mph 1010.4mb 19f
1:00pm 24 26 mph 1010.4mb 18f
12:00pm 22 24 mph 1011.1mb 18f
11:00am 21 23 mph 1012.1mb 17f
10:00am 20 22 mph 1012.9mb 16f
9:00am 22 25 mph 1012.8mb 16f
8:00am 24 28 mph 1012.6mb 15f
7:00am 23 25 mph 1012.7mb 15f
6:00am 21 23 mph 1012.8mb 16f
5:00am 23 25 mph 1012.1mb 16f
4:00am 20 22 mph 1012.6mb 16f
3:00am 22 24 mph 1013.1mb 16f
2:00am 24 29 mph 1013.9mb 16f
1:00am 21 23 mph 1015.3mb 16f
12:00am 24 26 mph 1015.4mb 16f
Sun 01/25 11:00pm 20 23 mph 1016mb 15f
10:00pm 23 25 mph 1016.1mb 16f
9:00pm 23 26 mph 1016mb 17f
8:00pm 20 23 mph 1016.3mb 18f
7:00pm 18 21 mph 1016.3mb 19f
6:00pm 21 23 mph 1015.8mb 19f
5:00pm 15 17 mph 1015.7mb 19f
4:00pm 17 20 mph 1014.8mb 19f
3:00pm 13 15 mph 1014.3mb 18f
2:00pm 11 15 mph 1014.2mb 18f
1:00pm 14 16 mph 1014.1mb 18f
12:00pm 14 15 mph 1014mb 18f
11:00am 13 16 mph 1014.2mb 18f
10:00am 14 16 mph 1014.2mb 19f
9:00am 18 21 mph 1012.9mb 20f
8:00am 14 16 mph 1012.1mb 20f
7:00am 16 18 mph 1011.1mb 21f
6:00am 20 22 mph 1009.7mb 25f
5:00am 22 23 mph 1008mb 28f
4:00am 22 24 mph 1006.8mb 30f
3:00am 25 26 mph 1005.1mb 31f
2:00am 26 30 mph 1003.9mb 31f
1:00am 25 28 mph 1002.8mb 33f
12:00am 24 28 mph 1002.1mb 32f
Sat 01/24 11:00pm 2
mph
1001.3mb 32f
10:00pm 2 3 mph 1001.1mb 32f
9:00pm 2 3 mph 1001.2mb 32f
8:00pm 2
mph
1001.1mb 31f
7:00pm 2 3 mph 1000.7mb 31f
6:00pm 3 5 mph 1000.6mb 31f
5:00pm 7 8 mph 1000.1mb 31f
4:00pm 3 5 mph 999.3mb 30f
3:00pm 6 7 mph 998.9mb 29f
2:00pm 11 14 mph 998.7mb 29f
1:00pm 11 13 mph 999.1mb 29f
12:00pm 21 26 mph 1000.3mb 28f
11:00am 23 28 mph 1001.6mb 28f
10:00am 10 15 mph 1003.2mb 27f
9:00am 8 15 mph 1003.9mb 26f
8:00am 17 20 mph 1004.4mb 26f
7:00am 14 17 mph 1004.9mb 26f
6:00am 15 20 mph 1005mb 26f
5:00am 17 22 mph 1005.4mb 26f
4:00am 16 18 mph 1006mb 27f
3:00am 7 10 mph 1007.1mb 26f
2:00am 7 9 mph 1008.3mb 26f
1:00am 14 16 mph 1008.4mb 28f
12:00am 11 14 mph 1009.3mb 27f
Fri 01/23 11:00pm 8 9 mph 1010.6mb 25f
10:00pm 8 11 mph 1011.8mb 25f
9:00pm 6 8 mph 1013.2mb 25f
8:00pm 8 10 mph 1014.1mb 25f
7:00pm 8 10 mph 1015.2mb 25f
6:00pm 6 7 mph 1015.8mb 26f
5:00pm 11 15 mph 1016.5mb 28f
4:00pm 10 15 mph 1017.5mb 28f
3:00pm 15 16 mph 1017.7mb 29f
2:00pm 15 16 mph 1018.4mb 29f
1:00pm 14 16 mph 1019.4mb 29f
12:00pm 15 17 mph 1020.9mb 28f
11:00am 16 18 mph 1022.5mb 28f
10:00am 14 17 mph 1023.6mb 27f
9:00am 8 14 mph 1024.2mb 26f
8:00am 10 16 mph 1024.9mb 26f
7:00am 10 15 mph 1025.9mb 26f
6:00am 9 13 mph 1026.5mb 26f
5:00am 10 15 mph 1026.8mb 26f
4:00am 11 17 mph 1026.6mb 26f
3:00am 9 16 mph 1027.5mb 25f
2:00am 6 9 mph 1028.5mb 25f
1:00am 8 14 mph 1028.5mb 24f
12:00am 8 11 mph 1028.7mb 25f
Thu 01/22 11:00pm 11 17 mph 1029.6mb 25f
10:00pm 13 17 mph 1029.5mb 24f